sensor_id;sensor_type;location;lat;lon;timestamp;P1;durP1;ratioP1;P2;durP2;ratioP2
22515;SDS011;11424;48.860;9.624;2023-04-25T00:01:36;2.8;;;3;;
22515;SDS011;11424;48.860;9.624;2023-04-25T00:06:36;3.3;;;3.5;;
22515;SDS011;11424;48.860;9.624;2023-04-25T00:11:36;1.9;;;2;;
22515;SDS011;11424;48.860;9.624;2023-04-25T00:16:36;6.2;;;6.7;;
22515;SDS011;11424;48.860;9.624;2023-04-25T00:21:36;6.6;;;7;;
22515;SDS011;11424;48.860;9.624;2023-04-25T00:26:36;4.3;;;4.6;;
22515;SDS011;11424;48.860;9.624;2023-04-25T00:31:36;1.7;;;1.8;;
22515;SDS011;11424;48.860;9.624;2023-04-25T00:36:36;2.6;;;2.7;;
22515;SDS011;11424;48.860;9.624;2023-04-25T00:41:36;2.8;;;3;;
22515;SDS011;11424;48.860;9.624;2023-04-25T00:46:36;2.8;;;3;;
22515;SDS011;11424;48.860;9.624;2023-04-25T00:51:36;2;;;2.2;;
22515;SDS011;11424;48.860;9.624;2023-04-25T00:56:36;4.3;;;4.6;;
22515;SDS011;11424;48.860;9.624;2023-04-25T01:01:36;2.2;;;2.4;;
22515;SDS011;11424;48.860;9.624;2023-04-25T01:06:36;2.2;;;2.4;;
22515;SDS011;11424;48.860;9.624;2023-04-25T01:11:36;3.7;;;3.9;;
22515;SDS011;11424;48.860;9.624;2023-04-25T01:16:36;1.8;;;1.9;;
22515;SDS011;11424;48.860;9.624;2023-04-25T01:21:36;4.4;;;4.8;;
22515;SDS011;11424;48.860;9.624;2023-04-25T01:26:36;3.1;;;3.3;;
22515;SDS011;11424;48.860;9.624;2023-04-25T01:31:36;3;;;3.2;;
22515;SDS011;11424;48.860;9.624;2023-04-25T01:36:36;1.7;;;1.8;;
22515;SDS011;11424;48.860;9.624;2023-04-25T01:41:36;2.7;;;2.9;;
22515;SDS011;11424;48.860;9.624;2023-04-25T01:46:36;1.6;;;1.7;;
22515;SDS011;11424;48.860;9.624;2023-04-25T01:51:36;1.6;;;1.7;;
22515;SDS011;11424;48.860;9.624;2023-04-25T01:56:36;4.5;;;4.8;;
22515;SDS011;11424;48.860;9.624;2023-04-25T02:01:36;2.8;;;3;;
22515;SDS011;11424;48.860;9.624;2023-04-25T02:06:36;5.4;;;5.7;;
22515;SDS011;11424;48.860;9.624;2023-04-25T02:11:36;1.6;;;1.7;;
22515;SDS011;11424;48.860;9.624;2023-04-25T02:16:36;3.2;;;3.5;;
22515;SDS011;11424;48.860;9.624;2023-04-25T02:21:36;3.6;;;3.8;;
22515;SDS011;11424;48.860;9.624;2023-04-25T02:26:36;3.5;;;3.7;;
22515;SDS011;11424;48.860;9.624;2023-04-25T02:31:36;4.7;;;5.1;;
22515;SDS011;11424;48.860;9.624;2023-04-25T02:36:36;1.6;;;1.7;;
22515;SDS011;11424;48.860;9.624;2023-04-25T02:41:36;1.6;;;1.7;;
22515;SDS011;11424;48.860;9.624;2023-04-25T02:46:36;1.7;;;1.9;;
22515;SDS011;11424;48.860;9.624;2023-04-25T02:51:36;1.4;;;1.5;;
22515;SDS011;11424;48.860;9.624;2023-04-25T02:56:36;2;;;2.4;;
22515;SDS011;11424;48.860;9.624;2023-04-25T03:01:36;2.2;;;2.4;;
22515;SDS011;11424;48.860;9.624;2023-04-25T03:06:36;5;;;5.3;;
22515;SDS011;11424;48.860;9.624;2023-04-25T03:11:36;5.2;;;5.5;;
22515;SDS011;11424;48.860;9.624;2023-04-25T03:16:36;4;;;4.3;;
22515;SDS011;11424;48.860;9.624;2023-04-25T03:21:36;11.1;;;12;;
22515;SDS011;11424;48.860;9.624;2023-04-25T03:26:36;9.2;;;9.9;;
22515;SDS011;11424;48.860;9.624;2023-04-25T03:31:36;4.9;;;5.3;;
22515;SDS011;11424;48.860;9.624;2023-04-25T03:36:36;5.1;;;5.4;;
22515;SDS011;11424;48.860;9.624;2023-04-25T03:41:36;3.7;;;4;;
22515;SDS011;11424;48.860;9.624;2023-04-25T03:46:36;2.6;;;2.8;;
22515;SDS011;11424;48.860;9.624;2023-04-25T03:51:36;3.1;;;3.3;;
22515;SDS011;11424;48.860;9.624;2023-04-25T03:56:36;3.1;;;3.3;;
22515;SDS011;11424;48.860;9.624;2023-04-25T04:01:36;3.2;;;3.4;;
22515;SDS011;11424;48.860;9.624;2023-04-25T04:06:36;3.1;;;3.3;;
22515;SDS011;11424;48.860;9.624;2023-04-25T04:11:36;2.9;;;3.2;;
22515;SDS011;11424;48.860;9.624;2023-04-25T04:16:36;2.7;;;2.9;;
22515;SDS011;11424;48.860;9.624;2023-04-25T04:21:36;2.4;;;2.6;;
22515;SDS011;11424;48.860;9.624;2023-04-25T04:26:36;2.8;;;3.1;;
22515;SDS011;11424;48.860;9.624;2023-04-25T04:31:36;2.8;;;3.1;;
22515;SDS011;11424;48.860;9.624;2023-04-25T04:36:36;2.4;;;2.8;;
22515;SDS011;11424;48.860;9.624;2023-04-25T04:41:36;2.2;;;2.4;;
22515;SDS011;11424;48.860;9.624;2023-04-25T04:46:36;2.3;;;2.6;;
22515;SDS011;11424;48.860;9.624;2023-04-25T04:51:36;1.9;;;2.1;;
22515;SDS011;11424;48.860;9.624;2023-04-25T04:56:36;2;;;2.2;;
22515;SDS011;11424;48.860;9.624;2023-04-25T05:01:36;1.9;;;2.1;;
22515;SDS011;11424;48.860;9.624;2023-04-25T05:06:36;1.9;;;2.1;;
22515;SDS011;11424;48.860;9.624;2023-04-25T05:11:36;1.9;;;2.1;;
22515;SDS011;11424;48.860;9.624;2023-04-25T05:16:36;2;;;2.2;;
22515;SDS011;11424;48.860;9.624;2023-04-25T05:21:36;1.8;;;1.9;;
22515;SDS011;11424;48.860;9.624;2023-04-25T05:26:36;2;;;2.1;;
22515;SDS011;11424;48.860;9.624;2023-04-25T05:31:36;2;;;2.2;;
22515;SDS011;11424;48.860;9.624;2023-04-25T05:36:36;2.1;;;2.3;;
22515;SDS011;11424;48.860;9.624;2023-04-25T05:41:36;2.1;;;2.3;;
22515;SDS011;11424;48.860;9.624;2023-04-25T05:46:36;2.4;;;2.6;;
22515;SDS011;11424;48.860;9.624;2023-04-25T05:51:36;2.2;;;2.7;;
22515;SDS011;11424;48.860;9.624;2023-04-25T05:56:36;2.5;;;2.7;;
22515;SDS011;11424;48.860;9.624;2023-04-25T06:01:36;2.4;;;2.6;;
22515;SDS011;11424;48.860;9.624;2023-04-25T06:06:36;2.3;;;2.5;;
22515;SDS011;11424;48.860;9.624;2023-04-25T06:11:36;2.2;;;2.4;;
22515;SDS011;11424;48.860;9.624;2023-04-25T06:16:36;2.1;;;2.4;;
22515;SDS011;11424;48.860;9.624;2023-04-25T06:21:36;2.7;;;3;;
22515;SDS011;11424;48.860;9.624;2023-04-25T06:26:36;2.7;;;3;;
22515;SDS011;11424;48.860;9.624;2023-04-25T06:31:36;2.5;;;2.7;;
22515;SDS011;11424;48.860;9.624;2023-04-25T06:36:36;4.8;;;5.1;;
22515;SDS011;11424;48.860;9.624;2023-04-25T06:41:36;8.6;;;9.2;;
22515;SDS011;11424;48.860;9.624;2023-04-25T06:46:36;10.2;;;10.9;;
22515;SDS011;11424;48.860;9.624;2023-04-25T06:51:36;11.2;;;11.9;;
22515;SDS011;11424;48.860;9.624;2023-04-25T06:56:36;10.5;;;11.3;;
22515;SDS011;11424;48.860;9.624;2023-04-25T07:01:36;16.8;;;17.9;;
22515;SDS011;11424;48.860;9.624;2023-04-25T07:06:36;7.1;;;7.6;;
22515;SDS011;11424;48.860;9.624;2023-04-25T07:11:36;18.1;;;19.4;;
22515;SDS011;11424;48.860;9.624;2023-04-25T07:16:36;19.6;;;21.1;;
22515;SDS011;11424;48.860;9.624;2023-04-25T07:21:36;9.9;;;10.6;;
22515;SDS011;11424;48.860;9.624;2023-04-25T07:26:36;4.7;;;5.1;;
22515;SDS011;11424;48.860;9.624;2023-04-25T07:31:36;5.9;;;6.4;;
22515;SDS011;11424;48.860;9.624;2023-04-25T07:36:36;3.1;;;3.4;;
22515;SDS011;11424;48.860;9.624;2023-04-25T07:41:36;6.2;;;6.6;;
22515;SDS011;11424;48.860;9.624;2023-04-25T07:46:36;6.8;;;7.3;;
22515;SDS011;11424;48.860;9.624;2023-04-25T07:51:36;8.7;;;9.3;;
22515;SDS011;11424;48.860;9.624;2023-04-25T07:56:36;9;;;9.6;;
22515;SDS011;11424;48.860;9.624;2023-04-25T08:01:36;23.7;;;25.5;;
22515;SDS011;11424;48.860;9.624;2023-04-25T08:06:36;24.1;;;25.9;;
22515;SDS011;11424;48.860;9.624;2023-04-25T08:11:36;23.3;;;24.9;;
22515;SDS011;11424;48.860;9.624;2023-04-25T08:16:36;19.7;;;21.1;;
22515;SDS011;11424;48.860;9.624;2023-04-25T08:21:36;12.6;;;13.4;;
22515;SDS011;11424;48.860;9.624;2023-04-25T08:26:36;17.5;;;18.7;;
22515;SDS011;11424;48.860;9.624;2023-04-25T08:31:36;18.4;;;19.6;;
22515;SDS011;11424;48.860;9.624;2023-04-25T08:36:36;10.7;;;11.5;;
22515;SDS011;11424;48.860;9.624;2023-04-25T08:41:36;15.1;;;16.1;;
22515;SDS011;11424;48.860;9.624;2023-04-25T08:46:37;12;;;12.8;;
22515;SDS011;11424;48.860;9.624;2023-04-25T08:51:40;11.7;;;12.6;;
22515;SDS011;11424;48.860;9.624;2023-04-25T08:56:37;12.4;;;13.3;;
22515;SDS011;11424;48.860;9.624;2023-04-25T09:01:36;18.3;;;19.6;;
22515;SDS011;11424;48.860;9.624;2023-04-25T09:06:36;12.5;;;13.4;;
22515;SDS011;11424;48.860;9.624;2023-04-25T09:11:36;25.1;;;27.3;;
22515;SDS011;11424;48.860;9.624;2023-04-25T09:16:37;14;;;15;;
22515;SDS011;11424;48.860;9.624;2023-04-25T09:21:36;20.5;;;22.6;;
22515;SDS011;11424;48.860;9.624;2023-04-25T09:26:36;8.2;;;8.9;;
22515;SDS011;11424;48.860;9.624;2023-04-25T09:31:36;13.1;;;14;;
22515;SDS011;11424;48.860;9.624;2023-04-25T09:36:36;17;;;18.2;;
22515;SDS011;11424;48.860;9.624;2023-04-25T09:41:37;22.3;;;23.8;;
22515;SDS011;11424;48.860;9.624;2023-04-25T09:46:36;20.4;;;21.9;;
22515;SDS011;11424;48.860;9.624;2023-04-25T09:51:36;11.6;;;12.3;;
22515;SDS011;11424;48.860;9.624;2023-04-25T09:56:36;4.5;;;4.9;;
22515;SDS011;11424;48.860;9.624;2023-04-25T10:01:36;11.8;;;12.6;;
22515;SDS011;11424;48.860;9.624;2023-04-25T10:06:36;5.4;;;5.7;;
22515;SDS011;11424;48.860;9.624;2023-04-25T10:11:36;25.9;;;27.9;;
22515;SDS011;11424;48.860;9.624;2023-04-25T10:16:36;18.8;;;20;;
22515;SDS011;11424;48.860;9.624;2023-04-25T10:21:36;18.6;;;20;;
22515;SDS011;11424;48.860;9.624;2023-04-25T10:26:36;14.1;;;15;;
22515;SDS011;11424;48.860;9.624;2023-04-25T10:31:44;11.6;;;12.4;;
22515;SDS011;11424;48.860;9.624;2023-04-25T10:36:36;12.5;;;13.3;;
22515;SDS011;11424;48.860;9.624;2023-04-25T10:41:52;14.8;;;15.8;;
22515;SDS011;11424;48.860;9.624;2023-04-25T10:46:36;9.8;;;10.6;;
22515;SDS011;11424;48.860;9.624;2023-04-25T10:51:36;9.2;;;9.9;;
22515;SDS011;11424;48.860;9.624;2023-04-25T10:56:37;9.8;;;10.4;;
22515;SDS011;11424;48.860;9.624;2023-04-25T11:01:37;10.2;;;10.9;;
22515;SDS011;11424;48.860;9.624;2023-04-25T11:06:40;6.2;;;6.8;;
22515;SDS011;11424;48.860;9.624;2023-04-25T11:11:36;7.2;;;7.7;;
22515;SDS011;11424;48.860;9.624;2023-04-25T11:16:36;3.2;;;3.4;;
22515;SDS011;11424;48.860;9.624;2023-04-25T11:21:36;2.4;;;2.8;;
22515;SDS011;11424;48.860;9.624;2023-04-25T11:26:36;3;;;3.2;;
22515;SDS011;11424;48.860;9.624;2023-04-25T11:31:36;4.5;;;4.9;;
22515;SDS011;11424;48.860;9.624;2023-04-25T11:36:36;8;;;8.6;;
22515;SDS011;11424;48.860;9.624;2023-04-25T11:41:36;9.7;;;10.4;;
22515;SDS011;11424;48.860;9.624;2023-04-25T11:46:36;13.4;;;14.2;;
22515;SDS011;11424;48.860;9.624;2023-04-25T11:51:38;14.7;;;15.7;;
22515;SDS011;11424;48.860;9.624;2023-04-25T11:56:36;9.9;;;10.6;;
22515;SDS011;11424;48.860;9.624;2023-04-25T12:01:37;14.4;;;15.4;;
22515;SDS011;11424;48.860;9.624;2023-04-25T12:06:36;11.7;;;12.6;;
22515;SDS011;11424;48.860;9.624;2023-04-25T12:11:44;10.5;;;11.4;;
22515;SDS011;11424;48.860;9.624;2023-04-25T12:16:40;21.7;;;23.4;;
22515;SDS011;11424;48.860;9.624;2023-04-25T12:21:36;18.1;;;19.4;;
22515;SDS011;11424;48.860;9.624;2023-04-25T12:26:52;19.3;;;20.7;;
22515;SDS011;11424;48.860;9.624;2023-04-25T12:31:36;24.7;;;26.5;;
22515;SDS011;11424;48.860;9.624;2023-04-25T12:36:36;14.2;;;15.3;;
22515;SDS011;11424;48.860;9.624;2023-04-25T12:41:36;3.2;;;3.5;;
22515;SDS011;11424;48.860;9.624;2023-04-25T12:46:36;4.8;;;5.2;;
22515;SDS011;11424;48.860;9.624;2023-04-25T12:51:37;19.4;;;20.6;;
22515;SDS011;11424;48.860;9.624;2023-04-25T12:56:36;5.3;;;5.8;;
22515;SDS011;11424;48.860;9.624;2023-04-25T13:01:36;3.4;;;3.6;;
22515;SDS011;11424;48.860;9.624;2023-04-25T13:06:36;3.2;;;3.5;;
22515;SDS011;11424;48.860;9.624;2023-04-25T13:11:36;2.4;;;2.6;;
22515;SDS011;11424;48.860;9.624;2023-04-25T13:16:36;2.7;;;3.1;;
22515;SDS011;11424;48.860;9.624;2023-04-25T13:21:36;2.7;;;3;;
22515;SDS011;11424;48.860;9.624;2023-04-25T13:26:36;2.3;;;2.5;;
22515;SDS011;11424;48.860;9.624;2023-04-25T13:31:36;1.9;;;2.1;;
22515;SDS011;11424;48.860;9.624;2023-04-25T13:36:36;2;;;2.2;;
22515;SDS011;11424;48.860;9.624;2023-04-25T13:41:36;2.5;;;2.9;;
22515;SDS011;11424;48.860;9.624;2023-04-25T13:46:37;3.4;;;3.6;;
22515;SDS011;11424;48.860;9.624;2023-04-25T13:51:36;4;;;4.3;;
22515;SDS011;11424;48.860;9.624;2023-04-25T13:56:37;4.9;;;5.3;;
22515;SDS011;11424;48.860;9.624;2023-04-25T14:01:36;6.1;;;6.5;;
22515;SDS011;11424;48.860;9.624;2023-04-25T14:06:36;25.8;;;27.4;;
22515;SDS011;11424;48.860;9.624;2023-04-25T14:11:36;3.5;;;3.8;;
22515;SDS011;11424;48.860;9.624;2023-04-25T14:16:36;4.7;;;5.1;;
22515;SDS011;11424;48.860;9.624;2023-04-25T14:21:36;5.9;;;6.4;;
22515;SDS011;11424;48.860;9.624;2023-04-25T14:26:37;11.5;;;12.3;;
22515;SDS011;11424;48.860;9.624;2023-04-25T14:31:37;11;;;11.8;;
22515;SDS011;11424;48.860;9.624;2023-04-25T14:36:37;19;;;20.3;;
22515;SDS011;11424;48.860;9.624;2023-04-25T14:41:37;19.3;;;20.6;;
22515;SDS011;11424;48.860;9.624;2023-04-25T14:46:36;5.5;;;6.1;;
22515;SDS011;11424;48.860;9.624;2023-04-25T14:51:36;8.7;;;9.5;;
22515;SDS011;11424;48.860;9.624;2023-04-25T14:56:36;23.4;;;25.1;;
22515;SDS011;11424;48.860;9.624;2023-04-25T15:01:37;12.8;;;13.8;;
22515;SDS011;11424;48.860;9.624;2023-04-25T15:06:36;8.2;;;8.8;;
22515;SDS011;11424;48.860;9.624;2023-04-25T15:11:37;13.3;;;14.5;;
22515;SDS011;11424;48.860;9.624;2023-04-25T15:16:36;5;;;6.1;;
22515;SDS011;11424;48.860;9.624;2023-04-25T15:21:37;4.6;;;6.1;;
22515;SDS011;11424;48.860;9.624;2023-04-25T15:26:37;4.1;;;4.5;;
22515;SDS011;11424;48.860;9.624;2023-04-25T15:31:37;4.3;;;5.4;;
22515;SDS011;11424;48.860;9.624;2023-04-25T15:36:37;4.7;;;5.2;;
22515;SDS011;11424;48.860;9.624;2023-04-25T15:41:37;9.2;;;10.1;;
22515;SDS011;11424;48.860;9.624;2023-04-25T15:46:37;5.6;;;6.2;;
22515;SDS011;11424;48.860;9.624;2023-04-25T15:51:37;6.4;;;7.1;;
22515;SDS011;11424;48.860;9.624;2023-04-25T15:56:37;7.6;;;8.3;;
22515;SDS011;11424;48.860;9.624;2023-04-25T16:01:37;9.5;;;10.4;;
22515;SDS011;11424;48.860;9.624;2023-04-25T16:06:37;7.3;;;7.9;;
22515;SDS011;11424;48.860;9.624;2023-04-25T16:11:37;14.5;;;15.5;;
22515;SDS011;11424;48.860;9.624;2023-04-25T16:16:37;16.9;;;18.1;;
22515;SDS011;11424;48.860;9.624;2023-04-25T16:21:37;23.2;;;25;;
22515;SDS011;11424;48.860;9.624;2023-04-25T16:26:37;20.7;;;22.1;;
22515;SDS011;11424;48.860;9.624;2023-04-25T16:31:37;26.6;;;28.7;;
22515;SDS011;11424;48.860;9.624;2023-04-25T16:36:37;33.2;;;36.6;;
22515;SDS011;11424;48.860;9.624;2023-04-25T16:41:37;21.9;;;23.7;;
22515;SDS011;11424;48.860;9.624;2023-04-25T16:46:37;7.9;;;8.4;;
22515;SDS011;11424;48.860;9.624;2023-04-25T16:51:37;5;;;5.4;;
22515;SDS011;11424;48.860;9.624;2023-04-25T16:56:37;5.6;;;6.1;;
22515;SDS011;11424;48.860;9.624;2023-04-25T17:01:37;5.5;;;6.1;;
22515;SDS011;11424;48.860;9.624;2023-04-25T17:06:37;5.2;;;5.8;;
22515;SDS011;11424;48.860;9.624;2023-04-25T17:11:37;5.9;;;6.4;;
22515;SDS011;11424;48.860;9.624;2023-04-25T17:16:37;4.7;;;5.1;;
22515;SDS011;11424;48.860;9.624;2023-04-25T17:21:37;6.1;;;6.7;;
22515;SDS011;11424;48.860;9.624;2023-04-25T17:26:37;6.6;;;7.1;;
22515;SDS011;11424;48.860;9.624;2023-04-25T17:31:37;6.2;;;6.8;;
22515;SDS011;11424;48.860;9.624;2023-04-25T17:36:37;6.4;;;6.9;;
22515;SDS011;11424;48.860;9.624;2023-04-25T17:41:37;7.2;;;7.7;;
22515;SDS011;11424;48.860;9.624;2023-04-25T17:46:37;8.7;;;9.5;;
22515;SDS011;11424;48.860;9.624;2023-04-25T17:51:37;6.5;;;7.2;;
22515;SDS011;11424;48.860;9.624;2023-04-25T17:56:37;5.7;;;6.2;;
22515;SDS011;11424;48.860;9.624;2023-04-25T18:01:37;6.7;;;7.2;;
22515;SDS011;11424;48.860;9.624;2023-04-25T18:06:37;6;;;6.5;;
22515;SDS011;11424;48.860;9.624;2023-04-25T18:11:37;7.3;;;8;;
22515;SDS011;11424;48.860;9.624;2023-04-25T18:16:37;6;;;6.6;;
22515;SDS011;11424;48.860;9.624;2023-04-25T18:21:37;4.6;;;5.7;;
22515;SDS011;11424;48.860;9.624;2023-04-25T18:26:37;4;;;5.2;;
22515;SDS011;11424;48.860;9.624;2023-04-25T18:31:37;4.5;;;5.5;;
22515;SDS011;11424;48.860;9.624;2023-04-25T18:36:37;4.1;;;5.6;;
22515;SDS011;11424;48.860;9.624;2023-04-25T18:41:37;3.6;;;4;;
22515;SDS011;11424;48.860;9.624;2023-04-25T18:46:37;3.8;;;4.7;;
22515;SDS011;11424;48.860;9.624;2023-04-25T18:51:37;3.3;;;3.7;;
22515;SDS011;11424;48.860;9.624;2023-04-25T18:56:37;3.8;;;4.9;;
22515;SDS011;11424;48.860;9.624;2023-04-25T19:01:37;4.5;;;5.8;;
22515;SDS011;11424;48.860;9.624;2023-04-25T19:06:37;3.4;;;4.3;;
22515;SDS011;11424;48.860;9.624;2023-04-25T19:11:37;3;;;3.3;;
22515;SDS011;11424;48.860;9.624;2023-04-25T19:16:37;3;;;3.7;;
22515;SDS011;11424;48.860;9.624;2023-04-25T19:21:37;3.1;;;3.4;;
22515;SDS011;11424;48.860;9.624;2023-04-25T19:26:37;3.2;;;3.5;;
22515;SDS011;11424;48.860;9.624;2023-04-25T19:31:37;3.3;;;4.6;;
22515;SDS011;11424;48.860;9.624;2023-04-25T19:36:37;3.6;;;4.8;;
22515;SDS011;11424;48.860;9.624;2023-04-25T19:41:37;3.6;;;5;;
22515;SDS011;11424;48.860;9.624;2023-04-25T19:46:37;3.6;;;5.1;;
22515;SDS011;11424;48.860;9.624;2023-04-25T19:51:37;3.6;;;4.3;;
22515;SDS011;11424;48.860;9.624;2023-04-25T19:56:37;3.2;;;4.6;;
22515;SDS011;11424;48.860;9.624;2023-04-25T20:01:37;3.3;;;4.4;;
22515;SDS011;11424;48.860;9.624;2023-04-25T20:06:37;3.2;;;3.8;;
22515;SDS011;11424;48.860;9.624;2023-04-25T20:11:37;3.2;;;4.7;;
22515;SDS011;11424;48.860;9.624;2023-04-25T20:16:37;3.4;;;3.8;;
22515;SDS011;11424;48.860;9.624;2023-04-25T20:21:37;3.2;;;3.9;;
22515;SDS011;11424;48.860;9.624;2023-04-25T20:26:37;3.6;;;4.3;;
22515;SDS011;11424;48.860;9.624;2023-04-25T20:31:37;3.4;;;3.8;;
22515;SDS011;11424;48.860;9.624;2023-04-25T20:36:37;3.6;;;4;;
22515;SDS011;11424;48.860;9.624;2023-04-25T20:41:37;3.4;;;4;;
22515;SDS011;11424;48.860;9.624;2023-04-25T20:46:37;3.6;;;5.1;;
22515;SDS011;11424;48.860;9.624;2023-04-25T20:51:37;4.4;;;4.9;;
22515;SDS011;11424;48.860;9.624;2023-04-25T20:56:37;10.1;;;11.1;;
22515;SDS011;11424;48.860;9.624;2023-04-25T21:01:37;14.7;;;16.1;;
22515;SDS011;11424;48.860;9.624;2023-04-25T21:06:37;16.4;;;18;;
22515;SDS011;11424;48.860;9.624;2023-04-25T21:11:37;14.3;;;15.7;;
22515;SDS011;11424;48.860;9.624;2023-04-25T21:16:37;8.5;;;9.4;;
22515;SDS011;11424;48.860;9.624;2023-04-25T21:21:37;9.2;;;10.1;;
22515;SDS011;11424;48.860;9.624;2023-04-25T21:26:37;8.5;;;9.4;;
22515;SDS011;11424;48.860;9.624;2023-04-25T21:31:37;9.3;;;10.3;;
22515;SDS011;11424;48.860;9.624;2023-04-25T21:36:37;11;;;11.9;;
22515;SDS011;11424;48.860;9.624;2023-04-25T21:41:37;5.1;;;5.6;;
22515;SDS011;11424;48.860;9.624;2023-04-25T21:46:37;10.5;;;11.6;;
22515;SDS011;11424;48.860;9.624;2023-04-25T21:51:37;10.4;;;11.3;;
22515;SDS011;11424;48.860;9.624;2023-04-25T21:56:37;10.9;;;12;;
22515;SDS011;11424;48.860;9.624;2023-04-25T22:01:37;9.8;;;10.6;;
22515;SDS011;11424;48.860;9.624;2023-04-25T22:06:37;5.6;;;6.2;;
22515;SDS011;11424;48.860;9.624;2023-04-25T22:11:37;6;;;6.6;;
22515;SDS011;11424;48.860;9.624;2023-04-25T22:16:37;7.1;;;7.9;;
22515;SDS011;11424;48.860;9.624;2023-04-25T22:21:37;8.7;;;9.6;;
22515;SDS011;11424;48.860;9.624;2023-04-25T22:26:37;13.9;;;15.2;;
22515;SDS011;11424;48.860;9.624;2023-04-25T22:31:37;14.5;;;16.1;;
22515;SDS011;11424;48.860;9.624;2023-04-25T22:36:37;18.8;;;20.6;;
22515;SDS011;11424;48.860;9.624;2023-04-25T22:41:37;10.3;;;11.5;;
22515;SDS011;11424;48.860;9.624;2023-04-25T22:46:37;9.7;;;10.7;;
22515;SDS011;11424;48.860;9.624;2023-04-25T22:51:37;15;;;16.4;;
22515;SDS011;11424;48.860;9.624;2023-04-25T22:56:37;9.3;;;10.4;;
22515;SDS011;11424;48.860;9.624;2023-04-25T23:01:37;13.7;;;15;;
22515;SDS011;11424;48.860;9.624;2023-04-25T23:06:37;14.7;;;16.3;;
22515;SDS011;11424;48.860;9.624;2023-04-25T23:11:37;8.4;;;9.4;;
22515;SDS011;11424;48.860;9.624;2023-04-25T23:16:37;8.9;;;9.8;;
22515;SDS011;11424;48.860;9.624;2023-04-25T23:21:37;11.1;;;12.3;;
22515;SDS011;11424;48.860;9.624;2023-04-25T23:26:37;9.7;;;10.8;;
22515;SDS011;11424;48.860;9.624;2023-04-25T23:31:37;9.4;;;10.5;;
22515;SDS011;11424;48.860;9.624;2023-04-25T23:36:37;10.7;;;11.8;;
22515;SDS011;11424;48.860;9.624;2023-04-25T23:41:37;10;;;11;;
22515;SDS011;11424;48.860;9.624;2023-04-25T23:46:37;11.7;;;12.8;;
22515;SDS011;11424;48.860;9.624;2023-04-25T23:51:37;14.7;;;16.1;;
22515;SDS011;11424;48.860;9.624;2023-04-25T23:56:37;7.3;;;9.6;;
